sensor_id;sensor_type;location;lat;lon;timestamp;P1;durP1;ratioP1;P2;durP2;ratioP2
18104;SDS011;9179;50.968;3.134;2023-08-06T00:00:56;3.85;;;1.30;;
18104;SDS011;9179;50.968;3.134;2023-08-06T00:03:23;2.42;;;1.10;;
18104;SDS011;9179;50.968;3.134;2023-08-06T00:05:50;2.63;;;1.23;;
18104;SDS011;9179;50.968;3.134;2023-08-06T00:08:17;2.30;;;1.73;;
18104;SDS011;9179;50.968;3.134;2023-08-06T00:10:44;5.57;;;1.40;;
18104;SDS011;9179;50.968;3.134;2023-08-06T00:13:14;2.95;;;1.80;;
18104;SDS011;9179;50.968;3.134;2023-08-06T00:15:41;6.40;;;1.38;;
18104;SDS011;9179;50.968;3.134;2023-08-06T00:18:08;1.95;;;1.30;;
18104;SDS011;9179;50.968;3.134;2023-08-06T00:20:35;2.30;;;1.67;;
18104;SDS011;9179;50.968;3.134;2023-08-06T00:23:05;1.67;;;1.02;;
18104;SDS011;9179;50.968;3.134;2023-08-06T00:25:32;3.33;;;1.35;;
18104;SDS011;9179;50.968;3.134;2023-08-06T00:27:59;1.52;;;1.00;;
18104;SDS011;9179;50.968;3.134;2023-08-06T00:30:27;2.15;;;1.25;;
18104;SDS011;9179;50.968;3.134;2023-08-06T00:32:54;2.53;;;1.60;;
18104;SDS011;9179;50.968;3.134;2023-08-06T00:35:21;2.92;;;1.40;;
18104;SDS011;9179;50.968;3.134;2023-08-06T00:37:48;1.48;;;1.10;;
18104;SDS011;9179;50.968;3.134;2023-08-06T00:40:15;1.77;;;1.38;;
18104;SDS011;9179;50.968;3.134;2023-08-06T00:42:41;2.15;;;1.13;;
18104;SDS011;9179;50.968;3.134;2023-08-06T00:45:10;2.20;;;1.30;;
18104;SDS011;9179;50.968;3.134;2023-08-06T00:47:38;3.40;;;1.50;;
18104;SDS011;9179;50.968;3.134;2023-08-06T00:50:06;2.88;;;1.58;;
18104;SDS011;9179;50.968;3.134;2023-08-06T00:52:34;2.92;;;2.38;;
18104;SDS011;9179;50.968;3.134;2023-08-06T00:55:02;2.90;;;1.52;;
18104;SDS011;9179;50.968;3.134;2023-08-06T00:57:29;1.75;;;1.30;;
18104;SDS011;9179;50.968;3.134;2023-08-06T00:59:56;3.90;;;2.03;;
18104;SDS011;9179;50.968;3.134;2023-08-06T01:02:23;2.92;;;1.60;;
18104;SDS011;9179;50.968;3.134;2023-08-06T01:04:51;2.17;;;1.63;;
18104;SDS011;9179;50.968;3.134;2023-08-06T01:07:21;2.35;;;1.40;;
18104;SDS011;9179;50.968;3.134;2023-08-06T01:09:57;2.70;;;1.83;;
18104;SDS011;9179;50.968;3.134;2023-08-06T01:12:45;3.20;;;1.88;;
18104;SDS011;9179;50.968;3.134;2023-08-06T01:15:18;3.35;;;2.60;;
18104;SDS011;9179;50.968;3.134;2023-08-06T01:17:48;2.83;;;2.63;;
18104;SDS011;9179;50.968;3.134;2023-08-06T01:20:17;6.68;;;3.15;;
18104;SDS011;9179;50.968;3.134;2023-08-06T01:22:45;4.82;;;3.10;;
18104;SDS011;9179;50.968;3.134;2023-08-06T01:25:12;4.35;;;3.72;;
18104;SDS011;9179;50.968;3.134;2023-08-06T01:27:44;4.57;;;3.63;;
18104;SDS011;9179;50.968;3.134;2023-08-06T01:30:15;3.40;;;3.03;;
18104;SDS011;9179;50.968;3.134;2023-08-06T01:32:48;4.60;;;3.65;;
18104;SDS011;9179;50.968;3.134;2023-08-06T01:35:19;6.28;;;2.80;;
18104;SDS011;9179;50.968;3.134;2023-08-06T01:37:48;6.65;;;2.38;;
18104;SDS011;9179;50.968;3.134;2023-08-06T01:40:15;4.80;;;2.63;;
18104;SDS011;9179;50.968;3.134;2023-08-06T01:42:42;4.93;;;2.67;;
18104;SDS011;9179;50.968;3.134;2023-08-06T01:45:09;2.97;;;2.53;;
18104;SDS011;9179;50.968;3.134;2023-08-06T01:47:37;6.22;;;3.15;;
18104;SDS011;9179;50.968;3.134;2023-08-06T01:50:04;2.85;;;2.65;;
18104;SDS011;9179;50.968;3.134;2023-08-06T01:52:31;3.70;;;3.45;;
18104;SDS011;9179;50.968;3.134;2023-08-06T01:54:59;7.05;;;3.97;;
18104;SDS011;9179;50.968;3.134;2023-08-06T01:57:26;9.85;;;3.97;;
18104;SDS011;9179;50.968;3.134;2023-08-06T01:59:53;4.45;;;3.40;;
18104;SDS011;9179;50.968;3.134;2023-08-06T02:02:20;5.22;;;3.28;;
18104;SDS011;9179;50.968;3.134;2023-08-06T02:04:47;6.10;;;3.15;;
18104;SDS011;9179;50.968;3.134;2023-08-06T02:07:14;4.07;;;3.25;;
18104;SDS011;9179;50.968;3.134;2023-08-06T02:09:40;5.13;;;3.85;;
18104;SDS011;9179;50.968;3.134;2023-08-06T02:12:09;4.43;;;3.45;;
18104;SDS011;9179;50.968;3.134;2023-08-06T02:14:36;7.50;;;4.18;;
18104;SDS011;9179;50.968;3.134;2023-08-06T02:17:02;8.10;;;4.68;;
18104;SDS011;9179;50.968;3.134;2023-08-06T02:19:29;7.85;;;4.50;;
18104;SDS011;9179;50.968;3.134;2023-08-06T02:21:56;12.07;;;4.65;;
18104;SDS011;9179;50.968;3.134;2023-08-06T02:24:23;10.38;;;6.07;;
18104;SDS011;9179;50.968;3.134;2023-08-06T02:26:50;5.53;;;4.40;;
18104;SDS011;9179;50.968;3.134;2023-08-06T02:29:22;11.55;;;5.07;;
18104;SDS011;9179;50.968;3.134;2023-08-06T02:31:48;7.53;;;3.28;;
18104;SDS011;9179;50.968;3.134;2023-08-06T02:34:15;5.97;;;3.90;;
18104;SDS011;9179;50.968;3.134;2023-08-06T02:36:42;6.72;;;3.80;;
18104;SDS011;9179;50.968;3.134;2023-08-06T02:39:09;5.55;;;3.97;;
18104;SDS011;9179;50.968;3.134;2023-08-06T02:41:36;5.40;;;3.67;;
18104;SDS011;9179;50.968;3.134;2023-08-06T02:44:03;6.10;;;3.15;;
18104;SDS011;9179;50.968;3.134;2023-08-06T02:46:31;3.47;;;3.17;;
18104;SDS011;9179;50.968;3.134;2023-08-06T02:48:58;6.93;;;2.83;;
18104;SDS011;9179;50.968;3.134;2023-08-06T02:51:25;3.55;;;2.97;;
18104;SDS011;9179;50.968;3.134;2023-08-06T02:53:52;9.30;;;3.10;;
18104;SDS011;9179;50.968;3.134;2023-08-06T02:56:18;8.05;;;3.28;;
18104;SDS011;9179;50.968;3.134;2023-08-06T02:58:46;6.18;;;3.65;;
18104;SDS011;9179;50.968;3.134;2023-08-06T03:01:13;8.15;;;3.40;;
18104;SDS011;9179;50.968;3.134;2023-08-06T03:03:41;7.15;;;3.90;;
18104;SDS011;9179;50.968;3.134;2023-08-06T03:06:08;6.63;;;3.17;;
18104;SDS011;9179;50.968;3.134;2023-08-06T03:08:35;6.40;;;3.45;;
18104;SDS011;9179;50.968;3.134;2023-08-06T03:11:02;8.23;;;3.95;;
18104;SDS011;9179;50.968;3.134;2023-08-06T03:13:29;8.55;;;3.80;;
18104;SDS011;9179;50.968;3.134;2023-08-06T03:15:57;3.47;;;3.08;;
18104;SDS011;9179;50.968;3.134;2023-08-06T03:18:25;5.55;;;3.35;;
18104;SDS011;9179;50.968;3.134;2023-08-06T03:20:53;7.72;;;3.47;;
18104;SDS011;9179;50.968;3.134;2023-08-06T03:23:22;9.35;;;3.53;;
18104;SDS011;9179;50.968;3.134;2023-08-06T03:25:48;7.30;;;3.80;;
18104;SDS011;9179;50.968;3.134;2023-08-06T03:28:15;7.97;;;3.50;;
18104;SDS011;9179;50.968;3.134;2023-08-06T03:30:42;8.88;;;4.82;;
18104;SDS011;9179;50.968;3.134;2023-08-06T03:33:09;6.65;;;3.47;;
18104;SDS011;9179;50.968;3.134;2023-08-06T03:35:36;7.97;;;4.00;;
18104;SDS011;9179;50.968;3.134;2023-08-06T03:38:04;9.93;;;3.80;;
18104;SDS011;9179;50.968;3.134;2023-08-06T03:40:31;7.85;;;4.95;;
18104;SDS011;9179;50.968;3.134;2023-08-06T03:43:00;7.95;;;4.50;;
18104;SDS011;9179;50.968;3.134;2023-08-06T03:45:27;13.88;;;4.13;;
18104;SDS011;9179;50.968;3.134;2023-08-06T03:47:54;6.03;;;4.13;;
18104;SDS011;9179;50.968;3.134;2023-08-06T03:50:21;8.38;;;4.28;;
18104;SDS011;9179;50.968;3.134;2023-08-06T03:52:48;8.60;;;4.40;;
18104;SDS011;9179;50.968;3.134;2023-08-06T03:55:16;12.45;;;4.88;;
18104;SDS011;9179;50.968;3.134;2023-08-06T03:57:43;10.18;;;4.38;;
18104;SDS011;9179;50.968;3.134;2023-08-06T04:00:10;11.73;;;5.03;;
18104;SDS011;9179;50.968;3.134;2023-08-06T04:02:37;9.35;;;5.80;;
18104;SDS011;9179;50.968;3.134;2023-08-06T04:05:04;7.53;;;4.00;;
18104;SDS011;9179;50.968;3.134;2023-08-06T04:07:32;8.48;;;4.53;;
18104;SDS011;9179;50.968;3.134;2023-08-06T04:09:59;5.97;;;4.38;;
18104;SDS011;9179;50.968;3.134;2023-08-06T04:12:29;5.47;;;3.85;;
18104;SDS011;9179;50.968;3.134;2023-08-06T04:14:57;4.53;;;3.75;;
18104;SDS011;9179;50.968;3.134;2023-08-06T04:17:25;7.53;;;4.60;;
18104;SDS011;9179;50.968;3.134;2023-08-06T04:19:52;7.50;;;3.90;;
18104;SDS011;9179;50.968;3.134;2023-08-06T04:22:20;4.95;;;4.50;;
18104;SDS011;9179;50.968;3.134;2023-08-06T04:24:47;7.65;;;4.10;;
18104;SDS011;9179;50.968;3.134;2023-08-06T04:27:14;8.30;;;3.97;;
18104;SDS011;9179;50.968;3.134;2023-08-06T04:29:43;4.85;;;4.13;;
18104;SDS011;9179;50.968;3.134;2023-08-06T04:32:10;8.93;;;5.15;;
18104;SDS011;9179;50.968;3.134;2023-08-06T04:34:38;8.13;;;4.40;;
18104;SDS011;9179;50.968;3.134;2023-08-06T04:37:05;7.30;;;4.18;;
18104;SDS011;9179;50.968;3.134;2023-08-06T04:39:31;6.38;;;3.80;;
18104;SDS011;9179;50.968;3.134;2023-08-06T04:41:58;5.85;;;4.35;;
18104;SDS011;9179;50.968;3.134;2023-08-06T04:44:25;9.10;;;3.97;;
18104;SDS011;9179;50.968;3.134;2023-08-06T04:46:53;6.60;;;3.97;;
18104;SDS011;9179;50.968;3.134;2023-08-06T04:49:20;9.02;;;4.28;;
18104;SDS011;9179;50.968;3.134;2023-08-06T04:51:47;6.47;;;3.92;;
18104;SDS011;9179;50.968;3.134;2023-08-06T04:54:14;10.13;;;3.72;;
18104;SDS011;9179;50.968;3.134;2023-08-06T04:56:41;7.93;;;4.22;;
18104;SDS011;9179;50.968;3.134;2023-08-06T04:59:08;6.03;;;2.90;;
18104;SDS011;9179;50.968;3.134;2023-08-06T05:01:35;3.25;;;2.78;;
18104;SDS011;9179;50.968;3.134;2023-08-06T05:04:03;4.63;;;2.75;;
18104;SDS011;9179;50.968;3.134;2023-08-06T05:06:30;4.47;;;2.90;;
18104;SDS011;9179;50.968;3.134;2023-08-06T05:08:57;4.65;;;2.80;;
18104;SDS011;9179;50.968;3.134;2023-08-06T05:11:24;6.88;;;2.80;;
18104;SDS011;9179;50.968;3.134;2023-08-06T05:13:51;7.50;;;2.63;;
18104;SDS011;9179;50.968;3.134;2023-08-06T05:16:17;6.03;;;2.40;;
18104;SDS011;9179;50.968;3.134;2023-08-06T05:18:44;5.47;;;2.10;;
18104;SDS011;9179;50.968;3.134;2023-08-06T05:21:13;8.27;;;2.00;;
18104;SDS011;9179;50.968;3.134;2023-08-06T05:23:41;4.18;;;1.75;;
18104;SDS011;9179;50.968;3.134;2023-08-06T05:26:08;2.00;;;1.60;;
18104;SDS011;9179;50.968;3.134;2023-08-06T05:28:35;5.53;;;1.77;;
18104;SDS011;9179;50.968;3.134;2023-08-06T05:31:05;2.08;;;1.40;;
18104;SDS011;9179;50.968;3.134;2023-08-06T05:33:32;2.25;;;1.48;;
18104;SDS011;9179;50.968;3.134;2023-08-06T05:35:59;4.82;;;2.25;;
18104;SDS011;9179;50.968;3.134;2023-08-06T05:38:27;4.45;;;1.95;;
18104;SDS011;9179;50.968;3.134;2023-08-06T05:40:55;2.97;;;1.90;;
18104;SDS011;9179;50.968;3.134;2023-08-06T05:43:22;5.53;;;1.98;;
18104;SDS011;9179;50.968;3.134;2023-08-06T05:45:49;5.78;;;2.08;;
18104;SDS011;9179;50.968;3.134;2023-08-06T05:48:16;4.60;;;2.22;;
18104;SDS011;9179;50.968;3.134;2023-08-06T05:50:43;7.25;;;2.38;;
18104;SDS011;9179;50.968;3.134;2023-08-06T05:53:10;6.03;;;3.00;;
18104;SDS011;9179;50.968;3.134;2023-08-06T05:55:39;5.40;;;2.35;;
18104;SDS011;9179;50.968;3.134;2023-08-06T05:58:06;3.50;;;2.45;;
18104;SDS011;9179;50.968;3.134;2023-08-06T06:00:33;8.90;;;4.20;;
18104;SDS011;9179;50.968;3.134;2023-08-06T06:03:00;5.10;;;2.47;;
18104;SDS011;9179;50.968;3.134;2023-08-06T06:05:27;5.10;;;3.08;;
18104;SDS011;9179;50.968;3.134;2023-08-06T06:07:54;3.88;;;2.38;;
18104;SDS011;9179;50.968;3.134;2023-08-06T06:10:21;4.15;;;2.92;;
18104;SDS011;9179;50.968;3.134;2023-08-06T06:12:49;2.42;;;2.22;;
18104;SDS011;9179;50.968;3.134;2023-08-06T06:15:16;3.08;;;2.33;;
18104;SDS011;9179;50.968;3.134;2023-08-06T06:17:43;5.55;;;2.00;;
18104;SDS011;9179;50.968;3.134;2023-08-06T06:20:10;5.15;;;1.85;;
18104;SDS011;9179;50.968;3.134;2023-08-06T06:22:37;3.25;;;2.33;;
18104;SDS011;9179;50.968;3.134;2023-08-06T06:25:04;7.22;;;2.95;;
18104;SDS011;9179;50.968;3.134;2023-08-06T06:27:32;2.92;;;2.13;;
18104;SDS011;9179;50.968;3.134;2023-08-06T06:30:00;4.28;;;2.25;;
18104;SDS011;9179;50.968;3.134;2023-08-06T06:32:27;2.35;;;2.13;;
18104;SDS011;9179;50.968;3.134;2023-08-06T06:34:54;4.60;;;3.05;;
18104;SDS011;9179;50.968;3.134;2023-08-06T06:37:21;7.00;;;2.55;;
18104;SDS011;9179;50.968;3.134;2023-08-06T06:39:48;4.32;;;2.50;;
18104;SDS011;9179;50.968;3.134;2023-08-06T06:42:15;6.07;;;2.92;;
18104;SDS011;9179;50.968;3.134;2023-08-06T06:44:41;6.70;;;2.78;;
18104;SDS011;9179;50.968;3.134;2023-08-06T06:47:10;3.65;;;2.08;;
18104;SDS011;9179;50.968;3.134;2023-08-06T06:49:36;4.93;;;2.38;;
18104;SDS011;9179;50.968;3.134;2023-08-06T06:52:04;6.65;;;3.08;;
18104;SDS011;9179;50.968;3.134;2023-08-06T06:54:31;4.82;;;2.05;;
18104;SDS011;9179;50.968;3.134;2023-08-06T06:56:58;4.15;;;2.85;;
18104;SDS011;9179;50.968;3.134;2023-08-06T06:59:25;4.75;;;2.22;;
18104;SDS011;9179;50.968;3.134;2023-08-06T07:01:52;1.90;;;1.70;;
18104;SDS011;9179;50.968;3.134;2023-08-06T07:04:20;4.10;;;1.92;;
18104;SDS011;9179;50.968;3.134;2023-08-06T07:06:47;3.47;;;1.50;;
18104;SDS011;9179;50.968;3.134;2023-08-06T07:09:14;3.08;;;1.42;;
18104;SDS011;9179;50.968;3.134;2023-08-06T07:11:41;4.45;;;2.03;;
18104;SDS011;9179;50.968;3.134;2023-08-06T07:14:09;3.75;;;1.85;;
18104;SDS011;9179;50.968;3.134;2023-08-06T07:16:36;2.92;;;1.60;;
18104;SDS011;9179;50.968;3.134;2023-08-06T07:19:02;7.07;;;2.15;;
18104;SDS011;9179;50.968;3.134;2023-08-06T07:21:32;5.10;;;1.80;;
18104;SDS011;9179;50.968;3.134;2023-08-06T07:23:59;4.35;;;1.92;;
18104;SDS011;9179;50.968;3.134;2023-08-06T07:26:25;2.55;;;1.70;;
18104;SDS011;9179;50.968;3.134;2023-08-06T07:28:52;2.78;;;1.98;;
18104;SDS011;9179;50.968;3.134;2023-08-06T07:31:19;4.78;;;2.30;;
18104;SDS011;9179;50.968;3.134;2023-08-06T07:33:46;5.10;;;1.85;;
18104;SDS011;9179;50.968;3.134;2023-08-06T07:36:13;2.42;;;2.00;;
18104;SDS011;9179;50.968;3.134;2023-08-06T07:38:42;6.10;;;2.10;;
18104;SDS011;9179;50.968;3.134;2023-08-06T07:41:09;5.55;;;2.40;;
18104;SDS011;9179;50.968;3.134;2023-08-06T07:43:36;2.63;;;2.15;;
18104;SDS011;9179;50.968;3.134;2023-08-06T07:46:03;5.35;;;2.90;;
18104;SDS011;9179;50.968;3.134;2023-08-06T07:48:30;3.45;;;2.35;;
18104;SDS011;9179;50.968;3.134;2023-08-06T07:50:57;4.68;;;1.88;;
18104;SDS011;9179;50.968;3.134;2023-08-06T07:53:24;5.32;;;2.53;;
18104;SDS011;9179;50.968;3.134;2023-08-06T07:55:56;4.43;;;2.25;;
18104;SDS011;9179;50.968;3.134;2023-08-06T07:58:23;4.95;;;2.30;;
18104;SDS011;9179;50.968;3.134;2023-08-06T08:00:51;3.90;;;1.88;;
18104;SDS011;9179;50.968;3.134;2023-08-06T08:03:18;5.43;;;1.98;;
18104;SDS011;9179;50.968;3.134;2023-08-06T08:05:46;5.10;;;2.10;;
18104;SDS011;9179;50.968;3.134;2023-08-06T08:08:14;2.55;;;2.15;;
18104;SDS011;9179;50.968;3.134;2023-08-06T08:10:41;3.78;;;1.95;;
18104;SDS011;9179;50.968;3.134;2023-08-06T08:13:10;3.88;;;1.83;;
18104;SDS011;9179;50.968;3.134;2023-08-06T08:15:43;3.13;;;2.50;;
18104;SDS011;9179;50.968;3.134;2023-08-06T08:18:10;7.03;;;2.20;;
18104;SDS011;9179;50.968;3.134;2023-08-06T08:20:37;3.15;;;1.90;;
18104;SDS011;9179;50.968;3.134;2023-08-06T08:23:04;3.42;;;1.75;;
18104;SDS011;9179;50.968;3.134;2023-08-06T08:25:31;3.08;;;1.63;;
18104;SDS011;9179;50.968;3.134;2023-08-06T08:27:59;7.05;;;2.47;;
18104;SDS011;9179;50.968;3.134;2023-08-06T08:30:27;3.10;;;1.92;;
18104;SDS011;9179;50.968;3.134;2023-08-06T08:32:54;6.55;;;2.03;;
18104;SDS011;9179;50.968;3.134;2023-08-06T08:35:21;3.10;;;1.55;;
18104;SDS011;9179;50.968;3.134;2023-08-06T08:37:48;3.08;;;2.38;;
18104;SDS011;9179;50.968;3.134;2023-08-06T08:40:15;3.78;;;1.60;;
18104;SDS011;9179;50.968;3.134;2023-08-06T08:42:42;5.10;;;1.83;;
18104;SDS011;9179;50.968;3.134;2023-08-06T08:45:11;3.72;;;2.50;;
18104;SDS011;9179;50.968;3.134;2023-08-06T08:47:41;2.05;;;1.63;;
18104;SDS011;9179;50.968;3.134;2023-08-06T08:50:09;7.32;;;2.55;;
18104;SDS011;9179;50.968;3.134;2023-08-06T08:52:38;3.17;;;2.00;;
18104;SDS011;9179;50.968;3.134;2023-08-06T08:55:05;7.13;;;1.73;;
18104;SDS011;9179;50.968;3.134;2023-08-06T08:57:34;3.92;;;1.83;;
18104;SDS011;9179;50.968;3.134;2023-08-06T09:00:01;3.40;;;2.22;;
18104;SDS011;9179;50.968;3.134;2023-08-06T09:02:28;6.55;;;2.15;;
18104;SDS011;9179;50.968;3.134;2023-08-06T09:04:59;4.45;;;1.90;;
18104;SDS011;9179;50.968;3.134;2023-08-06T09:07:29;4.88;;;2.00;;
18104;SDS011;9179;50.968;3.134;2023-08-06T09:10:02;4.07;;;2.08;;
18104;SDS011;9179;50.968;3.134;2023-08-06T09:12:30;6.50;;;3.33;;
18104;SDS011;9179;50.968;3.134;2023-08-06T09:14:58;4.53;;;2.08;;
18104;SDS011;9179;50.968;3.134;2023-08-06T09:17:25;7.70;;;2.60;;
18104;SDS011;9179;50.968;3.134;2023-08-06T09:19:53;2.78;;;1.67;;
18104;SDS011;9179;50.968;3.134;2023-08-06T09:22:21;5.32;;;1.77;;
18104;SDS011;9179;50.968;3.134;2023-08-06T09:24:49;3.90;;;2.10;;
18104;SDS011;9179;50.968;3.134;2023-08-06T09:27:16;3.00;;;2.08;;
18104;SDS011;9179;50.968;3.134;2023-08-06T09:29:46;4.78;;;2.13;;
18104;SDS011;9179;50.968;3.134;2023-08-06T09:32:13;2.67;;;1.95;;
18104;SDS011;9179;50.968;3.134;2023-08-06T09:34:41;1.90;;;1.70;;
18104;SDS011;9179;50.968;3.134;2023-08-06T09:37:09;6.53;;;2.17;;
18104;SDS011;9179;50.968;3.134;2023-08-06T09:39:38;4.35;;;2.10;;
18104;SDS011;9179;50.968;3.134;2023-08-06T09:42:06;4.25;;;1.98;;
18104;SDS011;9179;50.968;3.134;2023-08-06T09:44:33;7.72;;;2.38;;
18104;SDS011;9179;50.968;3.134;2023-08-06T09:47:01;4.63;;;2.47;;
18104;SDS011;9179;50.968;3.134;2023-08-06T09:49:40;2.35;;;2.03;;
18104;SDS011;9179;50.968;3.134;2023-08-06T09:52:09;4.13;;;2.22;;
18104;SDS011;9179;50.968;3.134;2023-08-06T09:54:39;4.57;;;2.20;;
18104;SDS011;9179;50.968;3.134;2023-08-06T09:57:06;2.88;;;1.90;;
18104;SDS011;9179;50.968;3.134;2023-08-06T09:59:33;4.03;;;1.98;;
18104;SDS011;9179;50.968;3.134;2023-08-06T10:02:01;4.78;;;2.00;;
18104;SDS011;9179;50.968;3.134;2023-08-06T10:04:32;3.88;;;2.08;;
18104;SDS011;9179;50.968;3.134;2023-08-06T10:06:59;3.03;;;1.80;;
18104;SDS011;9179;50.968;3.134;2023-08-06T10:09:27;6.07;;;2.40;;
18104;SDS011;9179;50.968;3.134;2023-08-06T10:11:55;4.68;;;2.08;;
18104;SDS011;9179;50.968;3.134;2023-08-06T10:14:24;5.68;;;2.67;;
18104;SDS011;9179;50.968;3.134;2023-08-06T10:16:55;5.28;;;2.20;;
18104;SDS011;9179;50.968;3.134;2023-08-06T10:19:24;4.68;;;2.47;;
18104;SDS011;9179;50.968;3.134;2023-08-06T10:22:11;3.35;;;2.10;;
18104;SDS011;9179;50.968;3.134;2023-08-06T10:24:47;2.88;;;2.33;;
18104;SDS011;9179;50.968;3.134;2023-08-06T10:27:23;5.05;;;2.20;;
18104;SDS011;9179;50.968;3.134;2023-08-06T10:29:55;3.03;;;2.05;;
18104;SDS011;9179;50.968;3.134;2023-08-06T10:32:21;3.13;;;2.10;;
18104;SDS011;9179;50.968;3.134;2023-08-06T10:35:27;4.63;;;2.15;;
18104;SDS011;9179;50.968;3.134;2023-08-06T10:37:58;6.00;;;2.63;;
18104;SDS011;9179;50.968;3.134;2023-08-06T10:40:26;4.43;;;2.58;;
18104;SDS011;9179;50.968;3.134;2023-08-06T10:42:55;5.72;;;2.50;;
18104;SDS011;9179;50.968;3.134;2023-08-06T10:45:24;2.88;;;2.10;;
18104;SDS011;9179;50.968;3.134;2023-08-06T10:47:54;3.08;;;2.33;;
18104;SDS011;9179;50.968;3.134;2023-08-06T10:50:22;3.00;;;2.28;;
18104;SDS011;9179;50.968;3.134;2023-08-06T10:52:49;3.42;;;1.98;;
18104;SDS011;9179;50.968;3.134;2023-08-06T10:55:21;4.88;;;2.30;;
18104;SDS011;9179;50.968;3.134;2023-08-06T10:57:50;4.07;;;1.95;;
18104;SDS011;9179;50.968;3.134;2023-08-06T11:00:18;5.10;;;2.53;;
18104;SDS011;9179;50.968;3.134;2023-08-06T11:02:46;5.82;;;2.55;;
18104;SDS011;9179;50.968;3.134;2023-08-06T11:05:14;7.03;;;3.20;;
18104;SDS011;9179;50.968;3.134;2023-08-06T11:07:41;3.85;;;2.13;;
18104;SDS011;9179;50.968;3.134;2023-08-06T11:10:09;3.25;;;2.30;;
18104;SDS011;9179;50.968;3.134;2023-08-06T11:12:37;4.93;;;2.40;;
18104;SDS011;9179;50.968;3.134;2023-08-06T11:15:05;3.55;;;2.28;;
18104;SDS011;9179;50.968;3.134;2023-08-06T11:17:35;4.88;;;2.67;;
18104;SDS011;9179;50.968;3.134;2023-08-06T11:20:02;5.78;;;2.40;;
18104;SDS011;9179;50.968;3.134;2023-08-06T11:22:30;5.63;;;2.10;;
18104;SDS011;9179;50.968;3.134;2023-08-06T11:24:57;9.05;;;2.88;;
18104;SDS011;9179;50.968;3.134;2023-08-06T11:27:26;3.35;;;2.00;;
18104;SDS011;9179;50.968;3.134;2023-08-06T11:29:54;5.20;;;1.80;;
18104;SDS011;9179;50.968;3.134;2023-08-06T11:32:21;4.63;;;2.20;;
18104;SDS011;9179;50.968;3.134;2023-08-06T11:34:49;4.78;;;2.70;;
18104;SDS011;9179;50.968;3.134;2023-08-06T11:37:20;5.72;;;2.10;;
18104;SDS011;9179;50.968;3.134;2023-08-06T11:39:49;3.40;;;1.85;;
18104;SDS011;9179;50.968;3.134;2023-08-06T11:42:16;4.30;;;2.08;;
18104;SDS011;9179;50.968;3.134;2023-08-06T11:44:43;3.08;;;2.17;;
18104;SDS011;9179;50.968;3.134;2023-08-06T11:47:12;2.85;;;1.85;;
18104;SDS011;9179;50.968;3.134;2023-08-06T11:49:41;3.70;;;1.70;;
18104;SDS011;9179;50.968;3.134;2023-08-06T11:52:13;3.25;;;1.75;;
18104;SDS011;9179;50.968;3.134;2023-08-06T11:54:41;4.30;;;2.00;;
18104;SDS011;9179;50.968;3.134;2023-08-06T11:57:08;4.78;;;1.88;;
18104;SDS011;9179;50.968;3.134;2023-08-06T11:59:36;3.25;;;1.77;;
18104;SDS011;9179;50.968;3.134;2023-08-06T12:02:04;2.42;;;2.13;;
18104;SDS011;9179;50.968;3.134;2023-08-06T12:07:27;3.78;;;2.30;;
18104;SDS011;9179;50.968;3.134;2023-08-06T12:09:57;7.20;;;2.40;;
18104;SDS011;9179;50.968;3.134;2023-08-06T12:12:24;4.15;;;2.05;;
18104;SDS011;9179;50.968;3.134;2023-08-06T12:14:51;5.38;;;1.85;;
18104;SDS011;9179;50.968;3.134;2023-08-06T12:17:18;5.22;;;2.00;;
18104;SDS011;9179;50.968;3.134;2023-08-06T12:19:45;2.63;;;2.15;;
18104;SDS011;9179;50.968;3.134;2023-08-06T12:22:13;3.78;;;2.13;;
18104;SDS011;9179;50.968;3.134;2023-08-06T12:24:42;4.75;;;1.77;;
18104;SDS011;9179;50.968;3.134;2023-08-06T12:27:10;2.70;;;1.80;;
18104;SDS011;9179;50.968;3.134;2023-08-06T12:29:37;2.22;;;1.85;;
18104;SDS011;9179;50.968;3.134;2023-08-06T12:32:06;1.90;;;1.45;;
18104;SDS011;9179;50.968;3.134;2023-08-06T12:34:33;4.18;;;2.15;;
18104;SDS011;9179;50.968;3.134;2023-08-06T12:37:00;4.20;;;1.98;;
18104;SDS011;9179;50.968;3.134;2023-08-06T12:39:28;3.35;;;1.98;;
18104;SDS011;9179;50.968;3.134;2023-08-06T12:41:57;3.83;;;2.22;;
18104;SDS011;9179;50.968;3.134;2023-08-06T12:44:24;3.78;;;2.00;;
18104;SDS011;9179;50.968;3.134;2023-08-06T12:46:51;5.38;;;2.05;;
18104;SDS011;9179;50.968;3.134;2023-08-06T12:49:18;3.88;;;2.15;;
18104;SDS011;9179;50.968;3.134;2023-08-06T12:51:47;3.25;;;1.83;;
18104;SDS011;9179;50.968;3.134;2023-08-06T12:54:14;4.78;;;2.13;;
18104;SDS011;9179;50.968;3.134;2023-08-06T12:56:42;3.55;;;1.70;;
18104;SDS011;9179;50.968;3.134;2023-08-06T12:59:10;3.45;;;1.80;;
18104;SDS011;9179;50.968;3.134;2023-08-06T13:01:37;3.25;;;1.40;;
18104;SDS011;9179;50.968;3.134;2023-08-06T13:04:05;2.50;;;1.65;;
18104;SDS011;9179;50.968;3.134;2023-08-06T13:06:32;3.47;;;1.98;;
18104;SDS011;9179;50.968;3.134;2023-08-06T13:09:01;4.80;;;2.00;;
18104;SDS011;9179;50.968;3.134;2023-08-06T13:11:29;3.22;;;1.70;;
18104;SDS011;9179;50.968;3.134;2023-08-06T13:13:56;4.95;;;1.98;;
18104;SDS011;9179;50.968;3.134;2023-08-06T13:16:26;4.85;;;2.03;;
18104;SDS011;9179;50.968;3.134;2023-08-06T13:18:54;3.13;;;1.90;;
18104;SDS011;9179;50.968;3.134;2023-08-06T13:21:21;5.32;;;2.10;;
18104;SDS011;9179;50.968;3.134;2023-08-06T13:23:47;2.63;;;1.75;;
18104;SDS011;9179;50.968;3.134;2023-08-06T13:26:14;2.60;;;2.00;;
18104;SDS011;9179;50.968;3.134;2023-08-06T13:28:41;5.70;;;2.30;;
18104;SDS011;9179;50.968;3.134;2023-08-06T13:31:09;2.88;;;1.77;;
18104;SDS011;9179;50.968;3.134;2023-08-06T13:33:37;2.45;;;1.77;;
18104;SDS011;9179;50.968;3.134;2023-08-06T13:36:04;3.67;;;1.67;;
18104;SDS011;9179;50.968;3.134;2023-08-06T13:38:31;4.47;;;2.25;;
18104;SDS011;9179;50.968;3.134;2023-08-06T13:40:58;4.88;;;2.08;;
18104;SDS011;9179;50.968;3.134;2023-08-06T13:43:25;1.80;;;1.33;;
18104;SDS011;9179;50.968;3.134;2023-08-06T13:45:52;3.33;;;1.80;;
18104;SDS011;9179;50.968;3.134;2023-08-06T13:48:19;5.10;;;1.80;;
18104;SDS011;9179;50.968;3.134;2023-08-06T13:50:47;1.85;;;1.42;;
18104;SDS011;9179;50.968;3.134;2023-08-06T13:53:14;1.63;;;1.38;;
18104;SDS011;9179;50.968;3.134;2023-08-06T13:55:41;4.07;;;1.55;;
18104;SDS011;9179;50.968;3.134;2023-08-06T13:58:08;1.48;;;1.20;;
18104;SDS011;9179;50.968;3.134;2023-08-06T14:00:35;2.17;;;1.60;;
18104;SDS011;9179;50.968;3.134;2023-08-06T14:03:02;2.33;;;1.70;;
18104;SDS011;9179;50.968;3.134;2023-08-06T14:05:29;1.23;;;1.13;;
18104;SDS011;9179;50.968;3.134;2023-08-06T14:07:57;2.80;;;1.52;;
18104;SDS011;9179;50.968;3.134;2023-08-06T14:10:24;1.90;;;1.40;;
18104;SDS011;9179;50.968;3.134;2023-08-06T14:12:51;1.58;;;1.10;;
18104;SDS011;9179;50.968;3.134;2023-08-06T14:15:18;3.10;;;1.75;;
18104;SDS011;9179;50.968;3.134;2023-08-06T14:17:45;1.80;;;1.55;;
18104;SDS011;9179;50.968;3.134;2023-08-06T14:20:12;2.20;;;1.45;;
18104;SDS011;9179;50.968;3.134;2023-08-06T14:22:48;1.80;;;1.40;;
18104;SDS011;9179;50.968;3.134;2023-08-06T14:25:16;3.50;;;1.50;;
18104;SDS011;9179;50.968;3.134;2023-08-06T14:27:43;1.73;;;1.42;;
18104;SDS011;9179;50.968;3.134;2023-08-06T14:30:11;2.45;;;1.80;;
18104;SDS011;9179;50.968;3.134;2023-08-06T14:32:38;3.97;;;1.50;;
18104;SDS011;9179;50.968;3.134;2023-08-06T14:35:05;2.72;;;1.73;;
18104;SDS011;9179;50.968;3.134;2023-08-06T14:37:32;3.47;;;1.90;;
18104;SDS011;9179;50.968;3.134;2023-08-06T14:39:59;1.83;;;1.40;;
18104;SDS011;9179;50.968;3.134;2023-08-06T14:42:27;2.28;;;1.30;;
18104;SDS011;9179;50.968;3.134;2023-08-06T14:44:54;2.58;;;1.42;;
18104;SDS011;9179;50.968;3.134;2023-08-06T14:47:21;1.90;;;1.40;;
18104;SDS011;9179;50.968;3.134;2023-08-06T14:49:49;4.13;;;1.73;;
18104;SDS011;9179;50.968;3.134;2023-08-06T14:52:16;3.08;;;1.20;;
18104;SDS011;9179;50.968;3.134;2023-08-06T14:54:43;2.90;;;1.20;;
18104;SDS011;9179;50.968;3.134;2023-08-06T14:57:10;2.92;;;1.85;;
18104;SDS011;9179;50.968;3.134;2023-08-06T14:59:39;3.60;;;1.48;;
18104;SDS011;9179;50.968;3.134;2023-08-06T15:02:06;3.97;;;1.65;;
18104;SDS011;9179;50.968;3.134;2023-08-06T15:04:33;1.50;;;1.40;;
18104;SDS011;9179;50.968;3.134;2023-08-06T15:07:00;1.63;;;1.20;;